Carrs, Kentucky
Current Conditions -  °F | °C
As of 3:55 AM on Wednesday 26 Nov 2014 (Local Time) from KFGX Reporting Station
Overcast Overcast  
Wind Chill: 25°   Ceiling: 11000
Heat Index: 32°   Visibility: 7mi
Dew Point: 29°   Wind: 8mph
Humidity: 88%   Direction: 60°ENE
Pressure: 30.1"   Gusts: NA
Location:  38.4929°N, 83.3898°W
Report Text: KFGX 260855Z AUTO 06007KT 7SM OVC110 00/M02 A3010 RMK AO2 T10011018
Loading
Personal Weather Stations






























Interactive Weather Map New forecast layout! Learn more

10-Day Weather Forecast

Advertisements
Track Severe Weather on mobile